Time;durP1;ratioP1;P1;durP2;ratioP2;P2;SDS_P1;SDS_P2;PMS_P1;PMS_P2;Temp;Humidity;BMP_temperature;BMP_pressure;BME280_temperature;BME280_humidity;BME280_pressure;Samples;Min_cycle;Max_cycle;Signal;HPM_P1;HPM_P2
2022/11/03 00:01:54;;;;;;;22.65;13.10;;;22.60;99.90;;;;;;5074649;28;20049;-48
2022/11/03 00:04:21;;;;;;;34.50;21.73;;;22.60;99.90;;;;;;5074638;28;20032;-48
2022/11/03 00:06:50;;;;;;;33.20;24.13;;;22.50;99.90;;;;;;5074824;28;20464;-48
2022/11/03 00:09:17;;;;;;;33.47;19.98;;;22.50;99.90;;;;;;5074606;28;20036;-48
2022/11/03 00:11:44;;;;;;;31.20;20.38;;;22.50;99.90;;;;;;5074775;28;20104;-48
2022/11/03 00:14:11;;;;;;;27.17;19.13;;;22.50;99.90;;;;;;5074600;28;20028;-48
2022/11/03 00:16:38;;;;;;;32.92;20.67;;;22.50;99.90;;;;;;5074280;28;20074;-48
2022/11/03 00:19:04;;;;;;;33.50;22.38;;;22.50;99.90;;;;;;5074564;28;20060;-48
2022/11/03 00:21:30;;;;;;;37.42;21.27;;;22.50;99.90;;;;;;5074500;28;20406;-49
2022/11/03 00:23:56;;;;;;;36.40;22.48;;;22.50;99.90;;;;;;5074198;28;20036;-48
2022/11/03 00:26:27;;;;;;;36.75;23.98;;;22.50;99.90;;;;;;5074343;28;20020;-49
2022/11/03 00:28:55;;;;;;;38.70;25.35;;;22.50;99.90;;;;;;5074197;28;20107;-48
2022/11/03 00:31:24;;;;;;;;;;;22.50;99.90;;;;;;5074607;28;20457;-49
2022/11/03 00:33:50;;;;;;;41.30;21.33;;;22.40;99.90;;;;;;5074013;28;19905;-49
2022/11/03 00:36:21;;;;;;;37.22;21.35;;;22.40;99.90;;;;;;5074175;28;20028;-53
2022/11/03 00:38:48;;;;;;;39.10;23.02;;;22.40;99.90;;;;;;5074021;28;20484;-48
2022/11/03 00:41:15;;;;;;;31.13;20.90;;;22.40;99.90;;;;;;5073942;28;20473;-48
2022/11/03 00:43:41;;;;;;;31.97;22.50;;;22.40;99.90;;;;;;5056126;28;20480;-48
2022/11/03 00:46:08;;;;;;;40.65;20.77;;;22.30;99.90;;;;;;5074026;28;20260;-49
2022/11/03 00:48:35;;;;;;;36.15;20.23;;;22.30;99.90;;;;;;5073921;28;20472;-49
2022/11/03 00:51:03;;;;;;;38.63;22.77;;;22.30;99.90;;;;;;5073817;28;20028;-49
2022/11/03 00:53:30;;;;;;;37.75;23.23;;;22.30;99.90;;;;;;5073701;28;20041;-48
2022/11/03 00:55:56;;;;;;;30.63;23.83;;;22.30;99.90;;;;;;5055667;28;20146;-50
2022/11/03 00:58:21;;;;;;;34.42;23.48;;;22.30;99.90;;;;;;5055854;28;20050;-48
2022/11/03 01:00:47;;;;;;;34.33;21.85;;;22.30;99.90;;;;;;5072737;22;20080;-49
2022/11/03 01:03:13;;;;;;;30.77;20.27;;;22.30;99.90;;;;;;5053517;28;20477;-49
2022/11/03 01:08:35;;;;;;;27.52;17.20;;;22.20;99.90;;;;;;5053905;28;20033;-50
2022/11/03 01:13:54;;;;;;;26.77;16.40;;;22.20;99.90;;;;;;5053734;28;20087;-50
2022/11/03 01:16:19;;;;;;;22.90;15.15;;;22.20;99.90;;;;;;5053224;28;20029;-49
2022/11/03 01:18:45;;;;;;;20.63;14.45;;;22.20;99.90;;;;;;5053290;28;20036;-51
2022/11/03 01:21:11;;;;;;;19.60;12.65;;;22.20;99.90;;;;;;5053282;28;20431;-51
2022/11/03 01:23:37;;;;;;;20.25;12.95;;;22.20;99.90;;;;;;5053349;28;20381;-51
2022/11/03 01:26:04;;;;;;;21.38;13.38;;;22.10;99.90;;;;;;5053290;28;20021;-50
2022/11/03 01:28:32;;;;;;;18.98;13.48;;;22.10;99.90;;;;;;5052418;28;20032;-49
2022/11/03 01:31:06;;;;;;;18.77;13.18;;;22.10;99.90;;;;;;5053325;28;20135;-50
2022/11/03 01:33:32;;;;;;;25.25;13.98;;;22.10;99.90;;;;;;5035346;28;20028;-50
2022/11/03 01:35:58;;;;;;;25.27;17.08;;;22.10;99.90;;;;;;5035293;28;20612;-50
2022/11/03 01:38:24;;;;;;;24.17;17.52;;;22.10;99.90;;;;;;5053092;28;20086;-50
2022/11/03 01:40:50;;;;;;;30.55;18.83;;;22.10;99.90;;;;;;5053089;28;20074;-50
2022/11/03 01:43:26;;;;;;;28.33;19.20;;;22.10;99.90;;;;;;5052992;28;20112;-49
2022/11/03 01:46:22;;;;;;;29.40;17.45;;;22.10;99.90;;;;;;5053022;28;20021;-50
2022/11/03 01:48:57;;;;;;;25.63;18.52;;;22.10;99.90;;;;;;5052929;28;20389;-50
2022/11/03 01:51:25;;;;;;;35.03;19.30;;;22.10;99.90;;;;;;5052902;28;20112;-50
2022/11/03 01:53:53;;;;;;;27.77;18.58;;;22.10;99.90;;;;;;5052795;28;20465;-50
2022/11/03 01:56:21;;;;;;;30.80;20.60;;;22.10;99.90;;;;;;5052747;28;20036;-50
2022/11/03 01:58:49;;;;;;;31.30;16.30;;;22.00;99.90;;;;;;5052813;28;20028;-50
2022/11/03 02:01:16;;;;;;;28.90;16.98;;;22.10;99.90;;;;;;5053182;28;20045;-50
2022/11/03 02:03:57;;;;;;;29.98;16.20;;;22.00;99.90;;;;;;5052811;28;20027;-50
2022/11/03 02:06:26;;;;;;;27.27;15.10;;;22.00;99.90;;;;;;5052913;28;20025;-50
2022/11/03 02:08:59;;;;;;;24.17;14.52;;;22.00;99.90;;;;;;5052668;28;20095;-50
2022/11/03 02:14:12;;;;;;;35.40;16.65;;;22.00;99.90;;;;;;5037848;28;20027;-50
2022/11/03 02:16:42;;;;;;;35.65;18.42;;;22.00;99.90;;;;;;5052582;28;20116;-50
2022/11/03 02:19:33;;;;;;;32.72;18.98;;;21.90;99.90;;;;;;5052693;28;20017;-50
2022/11/03 02:22:13;;;;;;;35.13;20.65;;;21.90;99.90;;;;;;5052667;28;20143;-50
2022/11/03 02:24:49;;;;;;;34.60;20.80;;;21.90;99.90;;;;;;5052550;28;20037;-50
2022/11/03 02:27:16;;;;;;;31.77;19.92;;;21.90;99.90;;;;;;5052371;28;20025;-50
2022/11/03 02:29:41;;;;;;;30.13;18.45;;;21.90;99.90;;;;;;5052640;28;20036;-50
2022/11/03 02:32:14;;;;;;;28.02;17.85;;;21.90;99.90;;;;;;5052445;28;20025;-50
2022/11/03 02:34:40;;;;;;;24.60;16.83;;;21.90;99.90;;;;;;5052613;28;20017;-50
2022/11/03 02:37:15;;;;;;;24.75;16.35;;;21.80;99.90;;;;;;5052479;28;20116;-50
2022/11/03 02:39:56;;;;;;;22.88;16.33;;;21.90;99.90;;;;;;5054260;28;20028;-49
2022/11/03 02:42:24;;;;;;;26.33;16.50;;;21.80;99.90;;;;;;5056251;28;20021;-50
2022/11/03 02:44:52;;;;;;;28.35;16.02;;;21.80;99.90;;;;;;5056120;28;20033;-50
2022/11/03 02:47:20;;;;;;;27.88;15.63;;;21.80;99.90;;;;;;5056143;28;20041;-50
2022/11/03 02:49:46;;;;;;;;;;;21.80;99.90;;;;;;5056510;28;20056;-50
2022/11/03 02:52:34;;;;;;;24.15;15.80;;;21.80;99.90;;;;;;5055931;28;19911;-49
2022/11/03 02:55:04;;;;;;;;;;;21.70;99.90;;;;;;5056507;28;20052;-49
2022/11/03 02:57:34;;;;;;;25.52;13.73;;;21.70;99.90;;;;;;5056258;28;20307;-50
2022/11/03 03:00:05;;;;;;;22.10;12.88;;;21.70;99.90;;;;;;5096754;22;20083;-48
2022/11/03 03:02:37;;;;;;;25.02;12.65;;;21.70;99.90;;;;;;5075802;28;20029;-47
2022/11/03 03:05:09;;;;;;;24.58;13.70;;;21.70;99.90;;;;;;5057796;28;20056;-48
2022/11/03 03:07:44;;;;;;;18.98;11.93;;;21.70;99.90;;;;;;5075661;28;20020;-48
2022/11/03 03:10:20;;;;;;;18.92;12.55;;;21.60;99.90;;;;;;5075738;28;20016;-47
2022/11/03 03:12:49;;;;;;;18.30;13.10;;;21.60;99.90;;;;;;5075788;28;20025;-48
2022/11/03 03:15:17;;;;;;;20.23;12.52;;;21.60;99.90;;;;;;5075549;28;20044;-48
2022/11/03 03:17:53;;;;;;;24.63;12.90;;;21.70;99.90;;;;;;5075661;28;20016;-48
2022/11/03 03:20:37;;;;;;;22.80;12.82;;;21.60;99.90;;;;;;5075657;28;20117;-49
2022/11/03 03:23:18;;;;;;;21.02;12.13;;;21.60;99.90;;;;;;5059729;28;20017;-48
2022/11/03 03:25:53;;;;;;;21.40;12.65;;;21.60;99.90;;;;;;5075480;28;20020;-49
2022/11/03 03:28:28;;;;;;;19.77;12.18;;;21.60;99.90;;;;;;5075409;28;20464;-49
2022/11/03 03:30:58;;;;;;;19.23;11.80;;;21.60;99.90;;;;;;5075484;28;20032;-48
2022/11/03 03:33:27;;;;;;;25.45;13.50;;;21.60;99.90;;;;;;5075356;28;20100;-48
2022/11/03 03:35:55;;;;;;;20.15;11.82;;;21.60;99.90;;;;;;5075318;28;20024;-48
2022/11/03 03:38:29;;;;;;;23.98;12.93;;;21.60;99.90;;;;;;5075329;28;20024;-48
2022/11/03 03:40:58;;;;;;;16.52;11.27;;;21.60;99.90;;;;;;5075162;28;20538;-48
2022/11/03 03:43:26;;;;;;;24.55;13.15;;;21.60;99.90;;;;;;5073911;28;20033;-48
2022/11/03 03:45:55;;;;;;;23.50;12.82;;;21.50;99.90;;;;;;5057108;28;20094;-48
2022/11/03 03:48:21;;;;;;;21.77;11.98;;;21.50;99.90;;;;;;5075201;28;20473;-48
2022/11/03 03:50:48;;;;;;;21.27;11.65;;;21.50;99.90;;;;;;5074304;28;20035;-48
2022/11/03 03:53:16;;;;;;;18.60;12.15;;;21.50;99.90;;;;;;5074816;28;20028;-49
2022/11/03 03:55:44;;;;;;;;;;;21.50;99.90;;;;;;5075253;28;20113;-48
2022/11/03 03:58:12;;;;;;;18.38;9.98;;;21.50;99.90;;;;;;5074809;28;20279;-48
2022/11/03 04:00:41;;;;;;;25.17;10.10;;;21.50;99.90;;;;;;5087429;22;20500;-50
2022/11/03 04:03:16;;;;;;;16.20;10.32;;;21.50;99.90;;;;;;5074561;28;20082;-50
2022/11/03 04:05:43;;;;;;;23.88;12.50;;;21.50;99.90;;;;;;5074609;28;20029;-50
2022/11/03 04:08:10;;;;;;;21.30;10.98;;;21.40;99.90;;;;;;5074698;28;20052;-50
2022/11/03 04:10:36;;;;;;;18.50;11.73;;;21.40;99.90;;;;;;5074658;28;20535;-51
2022/11/03 04:23:48;;;;;;;26.83;14.90;;;21.40;99.90;;;;;;5074375;28;20044;-51
2022/11/03 04:26:16;;;;;;;28.85;15.50;;;21.40;99.90;;;;;;5074398;28;20476;-51
2022/11/03 04:28:42;;;;;;;21.70;14.80;;;21.40;99.90;;;;;;5074216;28;20028;-50
2022/11/03 04:31:12;;;;;;;23.25;15.50;;;21.40;99.90;;;;;;5074195;28;20098;-51
2022/11/03 04:33:38;;;;;;;28.65;16.02;;;21.40;99.90;;;;;;5074220;28;20020;-50
2022/11/03 04:36:23;;;;;;;25.40;16.98;;;21.40;99.90;;;;;;5055886;28;20465;-50
2022/11/03 04:38:50;;;;;;;25.00;15.60;;;21.40;99.90;;;;;;5072848;28;20027;-50
2022/11/03 04:41:22;;;;;;;29.92;16.20;;;21.40;99.90;;;;;;5055877;28;20028;-51
2022/11/03 04:43:50;;;;;;;31.65;15.90;;;21.40;99.90;;;;;;5073713;28;20115;-50
2022/11/03 04:46:22;;;;;;;27.50;15.23;;;21.40;99.90;;;;;;5055593;28;20488;-50
2022/11/03 04:48:49;;;;;;;26.60;13.98;;;21.40;99.90;;;;;;5055859;28;20499;-49
2022/11/03 04:51:21;;;;;;;26.55;15.95;;;21.40;99.90;;;;;;5054627;28;20020;-49
2022/11/03 04:53:53;;;;;;;26.17;14.02;;;21.40;99.90;;;;;;5071481;28;20040;-50
2022/11/03 04:56:22;;;;;;;21.00;15.43;;;21.40;99.90;;;;;;5053872;28;20031;-49
2022/11/03 04:58:48;;;;;;;26.70;15.48;;;21.40;99.90;;;;;;5071206;28;20435;-50
2022/11/03 05:01:17;;;;;;;31.17;15.20;;;21.40;99.90;;;;;;5072178;28;20041;-50
2022/11/03 05:03:45;;;;;;;20.30;14.93;;;21.40;99.90;;;;;;5071249;28;20028;-50
2022/11/03 05:06:14;;;;;;;20.15;13.20;;;21.40;99.90;;;;;;5071272;28;20028;-50
2022/11/03 05:08:41;;;;;;;22.45;14.63;;;21.40;99.90;;;;;;5071137;28;20008;-50
2022/11/03 05:11:29;;;;;;;23.63;14.93;;;21.40;99.90;;;;;;5071213;28;20032;-50
2022/11/03 05:14:00;;;;;;;17.40;10.60;;;21.40;99.90;;;;;;5071917;28;20546;-50
2022/11/03 05:16:26;;;;;;;20.88;12.75;;;21.40;99.90;;;;;;5071879;28;20020;-50
2022/11/03 05:18:51;;;;;;;20.38;11.75;;;21.40;99.90;;;;;;5073131;28;20128;-49
2022/11/03 05:21:20;;;;;;;22.17;11.90;;;21.30;99.90;;;;;;5073363;28;20405;-50
2022/11/03 05:23:55;;;;;;;20.60;11.85;;;21.40;99.90;;;;;;5073196;28;20041;-50
2022/11/03 05:26:33;;;;;;;21.75;13.48;;;21.40;99.90;;;;;;5073243;28;20037;-50
2022/11/03 05:29:08;;;;;;;23.05;12.20;;;21.40;99.90;;;;;;5073206;28;20032;-50
2022/11/03 05:31:35;;;;;;;24.55;13.60;;;21.40;99.90;;;;;;5073166;28;20099;-50
2022/11/03 05:34:25;;;;;;;22.90;13.52;;;21.40;99.90;;;;;;5072999;28;20061;-50
2022/11/03 05:36:51;;;;;;;26.75;15.25;;;21.40;99.90;;;;;;5073144;28;20362;-50
2022/11/03 05:39:45;;;;;;;27.15;16.77;;;21.40;99.90;;;;;;5072958;28;20103;-49
2022/11/03 05:42:31;;;;;;;30.88;20.10;;;21.30;99.90;;;;;;5073141;28;20107;-50
2022/11/03 05:44:58;;;;;;;38.45;27.08;;;21.40;99.90;;;;;;5073181;28;20028;-51
2022/11/03 05:47:36;;;;;;;41.78;27.95;;;21.40;99.90;;;;;;5055024;28;20028;-51
2022/11/03 05:50:20;;;;;;;42.40;29.23;;;21.40;99.90;;;;;;5073104;28;20465;-51
2022/11/03 05:52:47;;;;;;;35.05;23.77;;;21.40;99.90;;;;;;5072864;28;20252;-51
2022/11/03 05:55:36;;;;;;;;;;;21.40;99.90;;;;;;5055460;28;20028;-51
2022/11/03 05:58:24;;;;;;;45.17;25.33;;;21.50;99.90;;;;;;5064649;28;19904;-51
2022/11/03 06:00:50;;;;;;;45.85;25.88;;;21.40;99.90;;;;;;5072678;28;20049;-50
2022/11/03 06:03:28;;;;;;;38.17;24.65;;;21.40;99.90;;;;;;5054985;28;20361;-51
2022/11/03 06:05:55;;;;;;;38.97;21.65;;;21.50;99.90;;;;;;5072911;28;20333;-51
2022/11/03 06:08:25;;;;;;;39.63;21.02;;;21.40;99.90;;;;;;5073013;28;20021;-51
2022/11/03 06:10:56;;;;;;;39.45;20.25;;;21.40;99.90;;;;;;5072914;28;20392;-51
2022/11/03 06:13:36;;;;;;;35.13;20.92;;;21.40;99.90;;;;;;5072834;28;20175;-51
2022/11/03 06:16:39;;;;;;;39.15;22.73;;;21.40;99.90;;;;;;5058731;28;20029;-51
2022/11/03 06:19:38;;;;;;;37.15;20.67;;;21.40;99.90;;;;;;5074385;28;20033;-51
2022/11/03 06:22:14;;;;;;;40.50;24.08;;;21.40;99.90;;;;;;5076657;28;20032;-51
2022/11/03 06:24:40;;;;;;;35.70;21.85;;;21.40;99.90;;;;;;5076618;28;20035;-50
2022/11/03 06:27:12;;;;;;;37.25;20.38;;;21.40;99.90;;;;;;5076532;28;20036;-51
2022/11/03 06:29:37;;;;;;;43.40;24.30;;;21.40;99.90;;;;;;5076558;28;20056;-51
2022/11/03 06:32:08;;;;;;;37.88;23.92;;;21.40;99.90;;;;;;5058666;28;20436;-51
2022/11/03 06:34:51;;;;;;;43.80;24.58;;;21.40;99.90;;;;;;5076398;28;20334;-51
2022/11/03 06:37:30;;;;;;;34.75;21.52;;;21.40;99.90;;;;;;5076148;28;20059;-51
2022/11/03 06:40:25;;;;;;;40.33;22.23;;;21.40;99.90;;;;;;5076269;28;20154;-51
2022/11/03 06:42:55;;;;;;;37.08;22.48;;;21.40;99.90;;;;;;5054074;28;20047;-51
2022/11/03 06:45:23;;;;;;;38.30;23.83;;;21.40;99.90;;;;;;5076095;28;20127;-51
2022/11/03 06:47:51;;;;;;;37.42;24.95;;;21.40;99.90;;;;;;5076190;28;20107;-51
2022/11/03 06:50:31;;;;;;;47.03;25.48;;;21.40;99.90;;;;;;5076084;28;20024;-50
2022/11/03 06:52:58;;;;;;;44.22;25.75;;;21.40;99.90;;;;;;5076107;28;20427;-51
2022/11/03 06:55:33;;;;;;;39.40;23.15;;;21.40;99.90;;;;;;5076265;28;20029;-51
2022/11/03 06:58:13;;;;;;;36.78;20.92;;;21.40;99.90;;;;;;5075988;28;20029;-51
2022/11/03 07:00:41;;;;;;;40.03;21.50;;;21.40;99.90;;;;;;5075799;28;20108;-51
2022/11/03 07:03:21;;;;;;;27.88;17.90;;;21.40;99.90;;;;;;5075895;28;20029;-51
2022/11/03 07:05:47;;;;;;;25.73;16.08;;;21.40;99.90;;;;;;5075964;28;20028;-51
2022/11/03 07:08:29;;;;;;;32.92;16.02;;;21.40;99.90;;;;;;5075680;28;20017;-51
2022/11/03 07:11:03;;;;;;;26.42;15.88;;;21.40;99.90;;;;;;5057754;28;20353;-51
2022/11/03 07:13:31;;;;;;;23.30;15.43;;;21.40;99.90;;;;;;5075710;28;20063;-51
2022/11/03 07:15:57;;;;;;;22.25;15.20;;;21.40;99.90;;;;;;5075616;28;20024;-51
2022/11/03 07:18:41;;;;;;;27.83;16.65;;;21.40;99.90;;;;;;5057449;28;20024;-51
2022/11/03 07:21:31;;;;;;;25.27;14.65;;;21.40;99.90;;;;;;5075497;28;20016;-51
2022/11/03 07:24:00;;;;;;;30.42;17.35;;;21.40;99.90;;;;;;5075102;28;20559;-50
2022/11/03 07:26:26;;;;;;;37.33;17.23;;;21.50;99.90;;;;;;5074236;28;20035;-51
2022/11/03 07:28:53;;;;;;;34.35;19.30;;;21.40;99.90;;;;;;5075290;28;20036;-51
2022/11/03 07:31:23;;;;;;;31.25;16.20;;;21.50;99.90;;;;;;5075160;28;20020;-50
2022/11/03 07:33:54;;;;;;;35.03;17.27;;;21.40;99.90;;;;;;5075272;28;20017;-50
2022/11/03 07:36:21;;;;;;;28.42;16.25;;;21.50;99.90;;;;;;5075205;28;20033;-51
2022/11/03 07:38:51;;;;;;;29.08;15.85;;;21.50;99.90;;;;;;5056911;28;20017;-51
2022/11/03 07:41:26;;;;;;;22.70;16.23;;;21.50;99.90;;;;;;5075017;28;20032;-51
2022/11/03 07:43:57;;;;;;;27.13;16.92;;;21.50;99.90;;;;;;5074955;28;20072;-51
2022/11/03 07:46:24;;;;;;;30.83;18.33;;;21.50;99.90;;;;;;5057432;28;20483;-50
2022/11/03 07:48:58;;;;;;;44.67;21.73;;;21.50;99.90;;;;;;5074899;28;20032;-51
2022/11/03 07:51:39;;;;;;;41.40;18.88;;;21.50;99.90;;;;;;5074688;28;20082;-51
2022/11/03 07:54:15;;;;;;;38.42;23.25;;;21.50;99.90;;;;;;5074765;28;20063;-51
2022/11/03 07:56:55;;;;;;;37.63;22.05;;;21.50;99.90;;;;;;5074623;28;20016;-51
2022/11/03 07:59:34;;;;;;;36.88;22.77;;;21.50;99.90;;;;;;5074400;28;20032;-50
2022/11/03 08:02:01;;;;;;;43.55;22.20;;;21.60;99.90;;;;;;5074641;28;20071;-50
2022/11/03 08:04:34;;;;;;;45.70;25.05;;;21.60;99.90;;;;;;5056187;28;20040;-51
2022/11/03 08:07:00;;;;;;;44.05;23.80;;;21.60;99.90;;;;;;5056670;28;20357;-51
2022/11/03 08:09:26;;;;;;;43.50;22.42;;;21.50;99.90;;;;;;5074738;28;20127;-51
2022/11/03 08:11:52;;;;;;;38.60;19.85;;;21.50;99.90;;;;;;5074719;28;20032;-50
2022/11/03 08:14:17;;;;;;;32.75;20.92;;;21.50;99.90;;;;;;5074238;28;20035;-51
2022/11/03 08:16:43;;;;;;;29.02;19.92;;;21.60;99.90;;;;;;5074153;28;20040;-51
2022/11/03 08:19:09;;;;;;;37.28;19.88;;;21.60;99.90;;;;;;5074209;28;20154;-51
2022/11/03 08:21:35;;;;;;;35.30;18.17;;;21.60;99.90;;;;;;5074358;28;20150;-51
2022/11/03 08:24:00;;;;;;;31.25;16.83;;;21.60;99.90;;;;;;5074403;28;20189;-51
2022/11/03 08:26:26;;;;;;;27.48;15.82;;;21.60;99.90;;;;;;5056223;28;20036;-51
2022/11/03 08:28:52;;;;;;;38.65;17.60;;;21.60;99.90;;;;;;5074230;28;20033;-51
2022/11/03 08:31:18;;;;;;;23.85;13.95;;;21.60;99.90;;;;;;5074089;28;20028;-51
2022/11/03 08:33:44;;;;;;;25.23;14.05;;;21.60;99.90;;;;;;5074129;28;20020;-51
2022/11/03 08:36:10;;;;;;;36.00;18.42;;;21.70;99.90;;;;;;5074021;28;20024;-51
2022/11/03 08:38:36;;;;;;;36.47;18.88;;;21.70;99.90;;;;;;5073829;28;20028;-50
2022/11/03 08:41:02;;;;;;;36.10;17.40;;;21.70;99.90;;;;;;5073906;28;20423;-50
2022/11/03 08:43:28;;;;;;;39.63;19.02;;;21.70;99.90;;;;;;5074014;28;20388;-50
2022/11/03 08:45:54;;;;;;;26.77;13.70;;;21.70;99.90;;;;;;5056192;28;20107;-51
2022/11/03 08:48:22;;;;;;;26.40;12.60;;;21.70;99.90;;;;;;5073740;28;20112;-51
2022/11/03 08:50:49;;;;;;;19.65;10.68;;;21.70;99.90;;;;;;5073761;28;20447;-50
2022/11/03 08:53:16;;;;;;;16.65;9.45;;;21.70;99.90;;;;;;5073778;28;20024;-49
2022/11/03 08:55:42;;;;;;;16.00;5.63;;;21.80;99.90;;;;;;5073779;28;20028;-50
2022/11/03 08:58:08;;;;;;;16.55;8.45;;;21.80;99.90;;;;;;5073754;28;20104;-51
2022/11/03 09:00:35;;;;;;;13.52;6.13;;;21.80;99.90;;;;;;5043796;28;20046;-51
2022/11/03 09:03:00;;;;;;;12.90;5.18;;;21.90;99.90;;;;;;5033581;28;20025;-51
2022/11/03 09:05:26;;;;;;;12.25;8.15;;;21.90;99.90;;;;;;5033536;28;20041;-51
2022/11/03 09:07:52;;;;;;;13.82;6.72;;;22.00;99.90;;;;;;5033771;28;20109;-50
2022/11/03 09:10:18;;;;;;;11.45;5.03;;;22.10;99.90;;;;;;5033681;28;20026;-50
2022/11/03 09:12:43;;;;;;;10.25;6.45;;;22.20;99.90;;;;;;5033449;28;20025;-51
2022/11/03 09:15:10;;;;;;;18.15;6.05;;;22.30;99.90;;;;;;5033470;28;20025;-50
2022/11/03 09:17:36;;;;;;;10.23;5.28;;;22.30;99.90;;;;;;5033516;28;20030;-50
2022/11/03 09:20:03;;;;;;;10.93;5.47;;;22.40;99.90;;;;;;5033465;28;20017;-50
2022/11/03 09:22:28;;;;;;;9.63;4.80;;;22.50;99.90;;;;;;5033544;28;20021;-50
2022/11/03 09:24:54;;;;;;;13.90;4.28;;;22.50;99.90;;;;;;5033281;28;20087;-50
2022/11/03 09:27:20;;;;;;;8.73;3.60;;;22.50;99.90;;;;;;5033115;28;20423;-50
2022/11/03 09:29:46;;;;;;;7.90;4.70;;;22.60;99.90;;;;;;5033235;28;20032;-50
2022/11/03 09:32:12;;;;;;;12.35;3.70;;;22.70;99.90;;;;;;5033239;28;20021;-50
2022/11/03 09:34:38;;;;;;;9.63;4.40;;;22.70;99.90;;;;;;5033359;28;20079;-50
2022/11/03 09:37:03;;;;;;;10.30;4.78;;;22.80;99.90;;;;;;5033232;28;20010;-50
2022/11/03 09:39:29;;;;;;;12.68;3.75;;;22.90;99.90;;;;;;5033118;28;20391;-50
2022/11/03 09:41:56;;;;;;;7.32;2.70;;;22.90;99.90;;;;;;5031767;28;20440;-50
2022/11/03 09:44:23;;;;;;;8.85;3.28;;;23.00;99.90;;;;;;5033125;28;20389;-50
2022/11/03 09:46:50;;;;;;;9.25;3.88;;;23.10;99.90;;;;;;5033027;28;20021;-50
2022/11/03 09:49:18;;;;;;;10.60;4.05;;;23.10;99.90;;;;;;5032267;28;20032;-50
2022/11/03 09:51:45;;;;;;;6.97;2.40;;;23.20;99.90;;;;;;5032920;28;20021;-50
2022/11/03 09:54:16;;;;;;;6.43;3.63;;;23.20;99.90;;;;;;5032929;28;20044;-50
2022/11/03 09:56:42;;;;;;;7.65;4.43;;;23.20;99.90;;;;;;5031702;28;20474;-50
2022/11/03 09:59:20;;;;;;;5.50;3.20;;;23.30;99.90;;;;;;5033080;28;20029;-50
2022/11/03 10:01:48;;;;;;;8.45;3.60;;;23.40;99.90;;;;;;5031510;28;20049;-50
2022/11/03 10:04:16;;;;;;;9.52;3.75;;;23.50;99.90;;;;;;5032834;28;20041;-50
2022/11/03 10:06:42;;;;;;;5.75;2.83;;;23.60;99.90;;;;;;5032778;28;20021;-50
2022/11/03 10:09:16;;;;;;;8.43;4.35;;;23.70;99.90;;;;;;5032852;28;20477;-50
2022/11/03 10:11:43;;;;;;;7.80;3.30;;;23.80;99.90;;;;;;5032793;28;20025;-50
2022/11/03 10:14:12;;;;;;;8.57;2.67;;;23.90;99.90;;;;;;5032706;28;20029;-50
2022/11/03 10:16:41;;;;;;;7.25;2.97;;;23.90;99.90;;;;;;5031319;28;20029;-51
2022/11/03 10:19:13;;;;;;;6.57;2.80;;;24.00;99.90;;;;;;5031479;28;20409;-51
2022/11/03 10:21:41;;;;;;;11.07;3.25;;;24.10;99.90;;;;;;5032568;28;20026;-50
2022/11/03 10:24:11;;;;;;;7.45;3.58;;;24.10;99.90;;;;;;5032523;28;20459;-51
2022/11/03 10:26:48;;;;;;;8.35;3.55;;;24.20;99.90;;;;;;5032796;28;20033;-50
2022/11/03 10:29:23;;;;;;;9.60;3.40;;;24.30;99.90;;;;;;5032615;28;20492;-50
2022/11/03 10:31:52;;;;;;;3.83;2.60;;;24.50;99.90;;;;;;5032473;28;20109;-50
2022/11/03 10:34:36;;;;;;;5.57;3.05;;;24.50;99.90;;;;;;5032686;28;20079;-50
2022/11/03 10:37:21;;;;;;;7.32;2.65;;;24.70;99.90;;;;;;5032609;28;20485;-51
2022/11/03 10:39:49;;;;;;;5.85;2.13;;;24.70;99.90;;;;;;5032702;28;20116;-50
2022/11/03 10:42:28;;;;;;;8.65;2.25;;;24.80;99.90;;;;;;5032730;28;20533;-50
2022/11/03 10:45:18;;;;;;;13.10;3.17;;;24.90;99.90;;;;;;5031204;28;20029;-50
2022/11/03 10:47:58;;;;;;;7.07;3.38;;;24.90;99.90;;;;;;5031129;28;20029;-50
2022/11/03 10:50:26;;;;;;;4.70;2.25;;;25.00;99.90;;;;;;5032395;28;20072;-50
2022/11/03 10:52:52;;;;;;;6.07;2.85;;;25.00;99.90;;;;;;5032333;28;20532;-52
2022/11/03 10:55:20;;;;;;;7.75;2.40;;;25.10;99.90;;;;;;5032483;28;20032;-51
2022/11/03 10:57:46;;;;;;;3.53;2.45;;;25.20;99.90;;;;;;5031054;28;20025;-51
2022/11/03 11:00:14;;;;;;;3.88;2.70;;;25.20;99.90;;;;;;5044339;28;20044;-50
2022/11/03 11:02:42;;;;;;;7.60;3.13;;;25.30;99.90;;;;;;5075922;28;20422;-50
2022/11/03 11:05:12;;;;;;;;;;;25.30;99.90;;;;;;5076019;28;20500;-50
2022/11/03 11:07:40;;;;;;;8.75;2.72;;;25.30;99.90;;;;;;5075666;28;19904;-51
2022/11/03 11:10:06;;;;;;;5.78;3.53;;;25.40;99.90;;;;;;5075704;28;20017;-50
2022/11/03 11:12:32;;;;;;;7.40;3.03;;;25.40;99.90;;;;;;5075649;28;20028;-51
2022/11/03 11:15:01;;;;;;;6.35;2.80;;;25.30;99.90;;;;;;5057699;28;20032;-50
2022/11/03 11:17:48;;;;;;;7.40;2.97;;;25.30;99.90;;;;;;5075417;28;20028;-50
2022/11/03 11:20:40;;;;;;;5.60;2.63;;;25.20;99.90;;;;;;5075476;28;20100;-50
2022/11/03 11:23:27;;;;;;;6.68;2.63;;;25.20;99.90;;;;;;5075434;28;20141;-50
2022/11/03 11:26:08;;;;;;;;;;;25.20;99.90;;;;;;5075796;28;20020;-50
2022/11/03 11:29:09;;;;;;;11.77;6.75;;;25.20;99.90;;;;;;5075449;28;19957;-50
2022/11/03 11:31:41;;;;;;;11.93;5.90;;;25.10;99.90;;;;;;5051702;28;20511;-50
2022/11/03 11:34:17;;;;;;;10.18;5.65;;;25.10;99.90;;;;;;5075278;28;20033;-51
2022/11/03 11:36:44;;;;;;;10.27;5.30;;;25.00;99.90;;;;;;5075324;28;20095;-51
2022/11/03 11:39:19;;;;;;;10.73;4.78;;;25.00;99.90;;;;;;5075504;28;20033;-51
2022/11/03 11:42:04;;;;;;;12.95;5.88;;;24.90;99.90;;;;;;5075190;28;20020;-51
2022/11/03 11:44:39;;;;;;;10.23;4.18;;;24.90;99.90;;;;;;5075101;28;20389;-51
2022/11/03 11:47:26;;;;;;;8.75;3.88;;;24.90;99.90;;;;;;5074959;28;20070;-50
2022/11/03 11:50:14;;;;;;;;;;;24.80;99.90;;;;;;5075308;28;20027;-50
2022/11/03 11:52:59;;;;;;;11.80;5.15;;;24.80;99.90;;;;;;5066389;28;19904;-50
2022/11/03 11:55:37;;;;;;;10.45;4.32;;;24.80;99.90;;;;;;5074973;28;20024;-50
2022/11/03 11:58:05;;;;;;;6.25;3.40;;;24.70;99.90;;;;;;5074700;28;20024;-51
2022/11/03 12:00:33;;;;;;;10.60;4.78;;;24.70;99.90;;;;;;5073285;28;20523;-50
2022/11/03 12:03:02;;;;;;;10.38;3.72;;;24.70;99.90;;;;;;5074879;28;20031;-50
2022/11/03 12:05:34;;;;;;;13.18;5.03;;;24.70;99.90;;;;;;5074516;28;20044;-50
2022/11/03 12:08:01;;;;;;;10.70;5.90;;;24.60;99.90;;;;;;5074612;28;20021;-50
2022/11/03 12:10:30;;;;;;;11.00;5.18;;;24.50;99.90;;;;;;5074661;28;20029;-50
2022/11/03 12:12:58;;;;;;;8.02;4.72;;;24.50;99.90;;;;;;5056266;28;20032;-50
2022/11/03 12:15:53;;;;;;;6.93;4.35;;;24.50;99.90;;;;;;5074372;28;20040;-50
2022/11/03 12:18:37;;;;;;;11.88;5.20;;;24.40;99.90;;;;;;5074389;28;20020;-50
2022/11/03 12:21:33;;;;;;;7.25;4.53;;;24.40;99.90;;;;;;5074288;28;20017;-51
2022/11/03 12:23:58;;;;;;;9.32;4.38;;;24.40;99.90;;;;;;5074452;28;20418;-51
2022/11/03 12:26:27;;;;;;;11.48;4.10;;;24.40;99.90;;;;;;5074341;28;20154;-51
2022/11/03 12:28:53;;;;;;;9.40;4.10;;;24.40;99.90;;;;;;5074264;28;20523;-50
2022/11/03 12:31:20;;;;;;;8.15;3.78;;;24.30;99.90;;;;;;5074110;28;20052;-50
2022/11/03 12:33:46;;;;;;;13.88;4.90;;;24.30;99.90;;;;;;5074131;28;20112;-50
2022/11/03 12:36:12;;;;;;;11.30;4.15;;;24.30;99.90;;;;;;5073979;28;20028;-50
2022/11/03 12:38:38;;;;;;;7.40;4.18;;;24.30;99.90;;;;;;5074133;28;20036;-50
2022/11/03 12:41:23;;;;;;;10.90;3.95;;;24.30;99.90;;;;;;5073662;28;20051;-50
2022/11/03 12:43:50;;;;;;;18.13;7.57;;;24.30;99.90;;;;;;5073922;28;20056;-50
2022/11/03 12:46:17;;;;;;;11.15;4.60;;;24.30;99.90;;;;;;5074107;28;20506;-50
2022/11/03 12:48:43;;;;;;;11.10;5.60;;;24.40;99.90;;;;;;5073827;28;20028;-50
2022/11/03 12:51:16;;;;;;;12.50;8.38;;;24.30;99.90;;;;;;5073735;28;20029;-50
2022/11/03 12:53:42;;;;;;;12.98;7.13;;;24.30;99.90;;;;;;5073775;28;20476;-50
2022/11/03 12:56:09;;;;;;;15.45;5.57;;;24.30;99.90;;;;;;5073594;28;20062;-51
2022/11/03 12:58:35;;;;;;;16.30;9.23;;;24.30;99.90;;;;;;5073754;28;20723;-51
2022/11/03 13:01:02;;;;;;;11.27;5.35;;;24.30;99.90;;;;;;5073673;28;20119;-51
2022/11/03 13:03:28;;;;;;;10.18;5.10;;;24.30;99.90;;;;;;5071714;28;20040;-51
2022/11/03 13:05:54;;;;;;;9.90;4.60;;;24.30;99.90;;;;;;5073252;28;20496;-51
2022/11/03 13:08:20;;;;;;;8.90;4.85;;;24.30;99.90;;;;;;5072926;28;20021;-50
2022/11/03 13:10:46;;;;;;;8.60;3.53;;;24.30;99.90;;;;;;5072724;28;20029;-51
2022/11/03 13:13:12;;;;;;;10.20;4.28;;;24.30;99.90;;;;;;5054280;28;20117;-51
2022/11/03 13:15:37;;;;;;;10.77;3.90;;;24.40;99.90;;;;;;5071538;28;20353;-51